Latest Coastal Weather Observations for Esperance

IDW60701

Issued at 5:15 am WST Saturday 25 October 2014 (issued every 10 minutes, with the page automatically refreshed every 10 minutes)

About coastal observations | Map of coastal stations | Coastal observations for WA | Marine services | Other Formats
Station Details ID: 009789 Name: ESPERANCE Lat: -33.83 Lon: 121.89 Height: 25.0 m
Data from the previous 72 hours. | See also: Recent months at Esperance
Date/Time
WST
Temp

°C
Wind Pressure Rain
since 9am
mm
Weather Cloud Vis
km
Sea
Height
m
Swell
Dir
 
Speed
knots
Gust
knots
hPa Trend Height
m
Period
s
Dir
25/05:00am 14.0 NE 6 8 1014.2 - 0.0 - - 10 - - - -
25/04:30am 14.1 NNE 8 11 1014.3 - 0.0 - - 10 - - - -
25/04:00am 14.2 NNE 7 9 1014.4 - 0.0 - - 10 - - - -
25/03:30am 14.2 NE 8 11 1014.2 - 0.0 - - 10 - - - -
25/03:00am 14.4 NE 8 11 1014.4 S 0.0 - - 10 - - - -
25/02:31am 14.3 NE 5 8 1014.4 - 0.0 - Partly cloudy 10 - - - -
25/02:30am 14.3 ENE 5 8 1014.4 - 0.0 - Partly cloudy 10 - - - -
25/02:00am 14.7 NE 7 13 1014.4 - 0.0 - Cloudy 10 - - - -
25/01:30am 14.4 NE 6 10 1014.5 - 0.0 - Cloudy 10 - - - -
25/01:00am 14.0 ENE 7 11 1014.6 - 0.0 - Cloudy 10 - - - -
25/12:35am 14.0 ENE 8 11 1014.7 - 0.0 - Partly cloudy 10 - - - -
25/12:30am 14.0 ENE 7 11 1014.7 - 0.0 - Partly cloudy 10 - - - -
25/12:00am 13.9 E 7 10 1015.1 F 0.0 - - 10 - - - -
 
Date/Time
WST
Temp

°C
Wind Pressure Rain
since 9am
mm
Weather Cloud Vis
km
Sea
Height
m
Swell
Dir
 
Speed
knots
Gust
knots
hPa Trend Height
m
Period
s
Dir
24/11:30pm 14.0 E 6 8 1015.5 - 0.0 - - 10 - - - -
24/11:00pm 14.2 E 6 8 1015.7 - 0.0 - - 10 - - - -
24/10:30pm 14.4 E 7 11 1016.2 - 0.0 - - 10 - - - -
24/10:00pm 14.9 E 8 12 1016.4 - 0.0 - - 10 - - - -
24/09:30pm 15.3 E 9 15 1016.5 - 0.0 - - 10 - - - -
24/09:00pm 15.6 E 10 15 1016.8 F 0.0 - - 10 - - - -
24/08:30pm 15.8 ESE 11 16 1017.0 - 0.0 - - 10 - - - -
24/08:00pm 15.9 ESE 9 14 1017.1 - 0.0 - Partly cloudy 10 - - - -
24/07:30pm 16.1 ESE 13 17 1016.8 - 0.0 - Mostly clear 10 - - - -
24/07:00pm 16.1 ESE 13 18 1016.6 - 0.0 - Mostly clear 10 - - - -
24/06:30pm 16.4 ESE 14 18 1016.6 - 0.0 - Mostly clear 10 - - - -
24/06:00pm 16.9 ESE 13 18 1016.6 F 0.0 Fine Partly cloudy 30 - - - -
24/05:30pm 17.5 ESE 13 17 1016.2 - 0.0 - Mostly clear 10 - - - -
24/05:00pm 18.1 SE 13 18 1016.2 - 0.0 - Mostly clear 10 - - - -
24/04:30pm 18.7 SE 13 19 1016.1 - 0.0 - Mostly clear 10 - - - -
24/04:00pm 18.8 SE 15 19 1016.2 - 0.0 - Mostly clear 10 - - - -
24/03:30pm 18.2 SE 15 18 1016.3 - 0.0 - Mostly clear 10 - - - -
24/03:00pm 19.0 SE 13 18 1016.6 F 0.0 Fine Partly cloudy 30 - - - -
24/02:30pm 18.5 SSE 14 17 1016.9 - 0.0 - Mostly clear 10 - - - -
24/02:00pm 18.9 SSE 12 16 1017.3 - 0.0 - Mostly clear 10 - - - -
24/01:30pm 18.9 SE 13 17 1017.4 - 0.0 - Mostly clear 10 - - - -
24/01:00pm 19.3 SE 11 15 1017.9 - 0.0 - Mostly clear 10 - - - -
24/12:30pm 19.1 SE 9 13 1018.3 - 0.0 - Partly cloudy 10 - - - -
24/12:00pm 18.6 SE 9 12 1018.4 S 0.0 Fine Mostly cloudy 30 - - - -
24/11:30am 18.3 SE 8 11 1018.5 - 0.0 - Partly cloudy 10 - - - -
24/11:00am 18.4 SE 8 10 1018.6 - 0.0 - Mostly clear 10 - - - -
24/10:30am 18.1 SE 8 11 1019.0 - 0.0 - Mostly clear 10 - - - -
24/10:00am 18.5 SE 7 9 1019.1 - 0.0 - Mostly clear 10 - - - -
24/09:30am 17.9 SE 7 10 1019.1 - 0.0 - Mostly clear 10 - - - -
24/09:00am 17.3 ESE 7 10 1019.1 R 0.0 Recent precip. Cloudy 12 - - - -
24/08:30am 16.3 SSE 7 12 1018.9 - 0.0 - Partly cloudy 10 - - - -
24/08:02am 16.4 SSE 8 13 1018.8 - 0.0 Drizzle Mostly clear 7 - - - -
24/08:00am 16.5 SSE 8 12 1018.8 - 0.0 - Mostly clear 8 - - - -
24/07:30am 17.0 SSE 8 11 1018.6 - 0.0 - Mostly clear 10 - - - -
24/07:00am 16.8 SE 8 11 1018.5 - 0.0 - Mostly clear 10 - - - -
24/06:30am 16.8 SSE 7 9 1018.3 - 0.0 - Cloudy 10 - - - -
24/06:00am 16.6 S 6 10 1018.2 R 0.0 Haze Cloudy 20 - - - -
24/05:30am 16.4 S 7 11 1017.7 - 0.0 - Cloudy 10 - - - -
24/05:00am 16.5 S 8 10 1017.6 - 0.0 - Partly cloudy 10 - - - -
24/04:30am 16.6 S 6 8 1017.4 - 0.0 - Partly cloudy 10 - - - -
24/04:00am 16.5 S 7 11 1017.2 - 0.0 - Cloudy 10 - - - -
24/03:30am 16.5 S 7 11 1017.0 - 0.0 - Cloudy 10 - - - -
24/03:00am 16.4 SSW 6 9 1016.9 R 0.0 - Mostly cloudy 10 - - - -
24/02:30am 16.5 SSW 6 11 1016.7 - 0.0 - Partly cloudy 10 - - - -
24/02:00am 16.8 SW 4 7 1016.5 - 0.0 - Partly cloudy 10 - - - -
24/01:30am 16.6 SSW 7 9 1016.5 - 0.0 - Cloudy 10 - - - -
24/01:00am 16.8 SSW 6 9 1016.5 - 0.0 - Cloudy 10 - - - -
24/12:30am 16.4 SSW 5 9 1016.5 - 0.0 - Partly cloudy 10 - - - -
24/12:18am 16.7 SW 5 8 1016.5 - 0.0 - Partly cloudy 10 - - - -
24/12:00am 16.8 SW 7 9 1016.6 R 0.0 - Cloudy 10 - - - -
 
Date/Time
WST
Temp

°C
Wind Pressure Rain
since 9am
mm
Weather Cloud Vis
km
Sea
Height
m
Swell
Dir
 
Speed
knots
Gust
knots
hPa Trend Height
m
Period
s
Dir
23/11:46pm 16.5 SW 5 7 1016.5 - 0.0 - Partly cloudy 10 - - - -
23/11:30pm 16.3 SW 5 8 1016.5 - 0.0 - Partly cloudy 10 - - - -
23/11:00pm 16.5 SW 7 10 1016.6 - 0.0 - Partly cloudy 10 - - - -
23/10:30pm 16.2 W 6 9 1016.5 - 0.0 - Partly cloudy 10 - - - -
23/10:00pm 16.2 W 6 8 1016.5 - 0.0 - - 10 - - - -
23/09:30pm 16.5 W 4 6 1016.4 - 0.0 - Partly cloudy 10 - - - -
23/09:00pm 16.8 W 6 7 1016.4 R 0.0 - - 10 - - - -
23/08:30pm 17.2 W 6 10 1015.9 - 0.0 - - 10 - - - -
23/08:00pm 17.5 W 6 9 1015.7 - 0.0 - - 10 - - - -
23/07:30pm 17.9 WSW 7 11 1015.2 - 0.0 - Partly cloudy 10 - - - -
23/07:00pm 18.3 WSW 9 13 1014.7 - 0.0 - Partly cloudy 10 - - - -
23/06:30pm 18.5 WSW 9 13 1014.1 - 0.0 - - 10 - - - -
23/06:00pm 19.0 WSW 8 11 1013.4 R 0.0 Haze Mostly clear 20 - - - -
23/05:30pm 19.8 SW 11 19 1012.9 - 0.0 - Mostly clear 10 - - - -
23/05:00pm 21.5 SW 9 15 1012.3 - 0.0 - Mostly clear 10 - - - -
23/04:30pm 21.9 SW 11 19 1011.9 - 0.0 - Mostly clear 10 - - - -
23/04:00pm 22.8 SW 11 17 1011.5 - 0.0 - Mostly clear 10 - - - -
23/03:30pm 23.5 WSW 12 18 1011.1 - 0.0 - - 10 - - - -
23/03:00pm 23.0 WSW 12 18 1011.1 R 0.0 Haze Mostly clear 20 - - - -
23/02:30pm 23.0 WSW 13 20 1010.9 - 0.0 - - 10 - - - -
23/02:00pm 22.9 WSW 14 20 1010.9 - 0.0 - - 10 - - - -
23/01:30pm 23.4 SW 13 19 1010.8 - 0.0 - - 10 - - - -
23/01:00pm 22.9 WSW 12 18 1010.8 - 0.0 - Partly cloudy 10 - - - -
23/12:30pm 23.0 SW 9 13 1010.8 - 0.0 - Partly cloudy 10 - - - -
23/12:00pm 22.9 SW 13 19 1010.5 F 0.0 Fine Mostly clear 40 - - - -
23/11:30am 22.8 SW 10 15 1010.6 - 0.0 - Partly cloudy 10 - - - -
23/11:00am 24.1 WSW 8 13 1010.6 - 0.0 - Partly cloudy 10 - - - -
23/10:30am 24.9 WNW 14 21 1010.8 - 0.0 - Partly cloudy 10 - - - -
23/10:00am 24.2 WNW 12 17 1011.1 - 0.0 - Mostly clear 10 - - - -
23/09:30am 23.2 WNW 13 20 1011.3 - 0.0 - Mostly clear 10 - - - -
23/09:00am 22.0 WNW 14 21 1011.5 F 0.0 Fine Mostly clear 30 - - - -
23/08:30am 20.6 WNW 13 19 1011.6 - 0.0 - - 10 - - - -
23/08:00am 20.0 WNW 12 20 1011.5 - 0.0 - Partly cloudy 10 - - - -
23/07:30am 19.1 WNW 13 20 1011.4 - 0.0 - Partly cloudy 10 - - - -
23/07:00am 16.7 NW 12 17 1011.2 - 0.0 - Partly cloudy 10 - - - -
23/06:30am 15.9 NW 7 11 1011.1 - 0.0 - Partly cloudy 10 - - - -
23/06:00am 14.6 WNW 8 10 1011.2 F 0.0 Fine Mostly clear 25 - - - -
23/05:30am 14.1 NNW 6 8 1011.0 - 0.0 - - 10 - - - -
23/05:00am 14.3 NE 5 7 1010.1 - 0.0 - - 10 - - - -
23/04:30am 14.5 ENE 7 10 1010.0 - 0.0 - - 10 - - - -
23/04:00am 14.7 E 7 12 1010.3 - 0.0 - Partly cloudy 10 - - - -
23/03:30am 14.9 E 8 13 1010.7 - 0.0 - - 10 - - - -
23/03:00am 15.6 E 7 10 1011.3 F 0.0 - - 10 - - - -
23/02:30am 16.1 E 7 11 1011.7 - 0.0 - - 10 - - - -
23/02:00am 16.4 ESE 8 12 1011.7 - 0.0 - - 10 - - - -
23/01:30am 16.6 SE 9 13 1012.2 - 0.0 - - 10 - - - -
23/01:00am 16.5 SE 9 13 1012.3 - 0.0 - - 10 - - - -
23/12:30am 16.6 SE 9 11 1012.5 - 0.0 - Partly cloudy 10 - - - -
23/12:00am 16.8 SE 9 14 1012.7 F 0.0 - Partly cloudy 10 - - - -
 
Date/Time
WST
Temp

°C
Wind Pressure Rain
since 9am
mm
Weather Cloud Vis
km
Sea
Height
m
Swell
Dir
 
Speed
knots
Gust
knots
hPa Trend Height
m
Period
s
Dir
22/11:30pm 17.2 SSE 9 14 1012.7 - 0.0 - Partly cloudy 10 - - - -
22/11:00pm 16.7 NE 11 20 1012.5 - 0.0 - - 10 - - - -
22/10:30pm 16.6 NE 12 21 1011.4 - 0.0 - - 10 - - - -
22/10:00pm 16.8 NE 11 17 1012.2 - 0.0 - - 10 - - - -
22/09:30pm 17.1 ENE 10 18 1013.0 - 0.0 - - 10 - - - -
22/09:00pm 17.2 E 8 12 1013.7 F 0.0 - Mostly cloudy 10 - - - -
22/08:30pm 17.7 ENE 8 13 1014.5 - 0.0 - - 10 - - - -
22/08:00pm 18.5 ENE 11 16 1014.3 - 0.0 - - 10 - - - -
22/07:30pm 19.5 ENE 11 19 1014.3 - 0.0 - - 10 - - - -
22/07:00pm 20.3 ENE 11 15 1014.2 - 0.0 - - 10 - - - -
22/06:30pm 19.4 E 11 16 1014.2 - 0.0 - - 10 - - - -
22/06:00pm 19.5 ESE 11 15 1014.5 F 0.0 Haze Mostly cloudy 20 - - - -
22/05:30pm 20.1 ESE 11 14 1015.0 - 0.0 - - 10 - - - -
22/05:00pm 20.4 ESE 12 17 1015.2 - 0.0 - - 10 - - - -
22/04:30pm 20.6 ESE 13 17 1015.4 - 0.0 - - 10 - - - -
22/04:00pm 21.3 ESE 11 16 1015.7 - 0.0 - - 10 - - - -
22/03:30pm 21.6 SE 13 19 1015.9 - 0.0 - - 10 - - - -
22/03:00pm 21.8 ESE 15 20 1016.5 F 0.0 Fine Mostly cloudy 25 - - - -
22/02:30pm 22.2 ESE 13 18 1017.0 - 0.0 - - 10 - - - -
22/02:00pm 22.2 ESE 10 16 1017.5 - 0.0 - Mostly clear 10 - - - -
22/01:30pm 23.7 ENE 10 18 1018.2 - 0.0 - Mostly clear 10 - - - -
22/01:00pm 23.3 ENE 8 15 1019.6 - 0.0 - Mostly clear 10 - - - -
22/12:30pm 23.4 ENE 8 12 1020.2 - 0.0 - Mostly clear 10 - - - -
22/12:00pm 22.3 NE 9 17 1020.4 F 0.0 Fine Mostly cloudy 40 - - - -
22/11:30am 22.3 ENE 7 12 1020.8 - 0.0 - Partly cloudy 10 - - - -
22/11:00am 21.4 ENE 8 12 1021.2 - 0.0 - Partly cloudy 10 - - - -
22/10:30am 20.1 NNE 10 17 1021.6 - 0.0 - Mostly cloudy 10 - - - -
22/10:00am 19.2 E 9 13 1021.6 - 0.0 - Mostly cloudy 10 - - - -
22/09:30am 18.7 ENE 10 15 1022.4 - 0.0 - Cloudy 10 - - - -
22/09:00am 17.4 NE 10 15 1022.9 F 1.0 Fine Cloudy 30 - - - -
22/08:30am 17.0 NNE 6 9 1023.4 - - - Partly cloudy 10 - - - -
22/08:00am 16.5 NE 6 10 1023.5 - - - Mostly clear 10 - - - -
22/07:30am 15.6 E 5 7 1023.5 - - - Mostly clear 10 - - - -
22/07:00am 14.1 NE 8 12 1023.6 - - - Mostly clear 10 - - - -
22/06:30am 13.0 NNE 8 12 1023.4 - - - Mostly clear 10 - - - -
22/06:00am 12.8 NNE 6 9 1023.1 F - Fine Mostly cloudy 30 - - - -
22/05:30am 12.5 NNE 6 8 1023.0 - - - Partly cloudy 10 - - - -

Other Formats:

Comma delimited format used in spreadsheet applications
http://www.bom.gov.au/fwo/IDW60701/IDW60701.94638.axf

JavaScript Object Notation format (JSON) in row-major order
http://www.bom.gov.au/fwo/IDW60701/IDW60701.94638.json